FL51 weather

Wptv Heliport
West Palm Beach, Florida, United States

Public forecast

Using degrees Fahrenheit for public forecast. Weather courtesy of forecast.io.

Closest aviation weather report (METAR) to Wptv Heliport

Closest report is Palm Beach International Airport, 2.5 nm (4.6 km) SW. Retrieved 2019/10/14 14:53 UTC (25 minutes ago):

KPBI 141453Z 09010KT 10SM SCT022 BKN037 BKN060 29/22 A3008 RMK AO2 SLP185 T02890222 51011

Closest aviation forecast (TAF) to Wptv Heliport

Closest forecast is Palm Beach International Airport, 2.5 nm (4.6 km) SW. Retrieved 2019/10/14 12:26 UTC (3 hours ago):

TAF KPBI 141120Z 1412/1512 07007KT P6SM SCT020 BKN030 FM141500 10011KT P6SM SCT025 BKN035 FM150000 09006KT P6SM FEW030 SCT060